Time;durP1;ratioP1;P1;durP2;ratioP2;P2;SDS_P1;SDS_P2;PMS_P1;PMS_P2;Temp;Humidity;BMP_temperature;BMP_pressure;BME280_temperature;BME280_humidity;BME280_pressure;Samples;Min_cycle;Max_cycle;Signal;HPM_P1;HPM_P2
2021/07/25 00:00:57;;;;;;;9.30;6.63;;;23.20;86.20;;;;;;4985219;28;20096;-59
2021/07/25 00:03:23;;;;;;;9.27;6.97;;;23.20;85.90;;;;;;4984012;28;20031;-59
2021/07/25 00:05:48;;;;;;;9.00;6.72;;;23.20;86.00;;;;;;4998638;28;20435;-59
2021/07/25 00:08:14;;;;;;;7.70;6.90;;;23.20;86.20;;;;;;4982294;28;20243;-58
2021/07/25 00:10:44;;;;;;;9.10;7.00;;;23.20;86.30;;;;;;4979301;28;20069;-59
2021/07/25 00:13:09;;;;;;;10.50;6.68;;;23.10;86.30;;;;;;4983641;28;20042;-59
2021/07/25 00:15:35;;;;;;;11.43;6.88;;;23.10;86.30;;;;;;4984263;28;20026;-59
2021/07/25 00:18:01;;;;;;;8.20;6.88;;;23.10;86.40;;;;;;4982981;28;20042;-59
2021/07/25 00:20:26;;;;;;;8.07;6.60;;;23.10;86.40;;;;;;4984329;28;20034;-59
2021/07/25 00:22:52;;;;;;;8.35;6.57;;;23.10;86.40;;;;;;4984433;28;20039;-59
2021/07/25 00:25:20;;;;;;;13.35;6.90;;;23.10;86.60;;;;;;4983448;28;20031;-59
2021/07/25 00:27:52;;;;;;;9.20;7.13;;;23.10;86.70;;;;;;4985299;28;20342;-58
2021/07/25 00:30:17;;;;;;;11.13;7.10;;;23.10;86.80;;;;;;4983550;28;20601;-59
2021/07/25 00:32:43;;;;;;;9.15;6.72;;;23.00;86.80;;;;;;4982606;28;20150;-59
2021/07/25 00:35:09;;;;;;;7.40;6.70;;;23.00;86.80;;;;;;4984561;28;20118;-59
2021/07/25 00:37:35;;;;;;;10.45;6.97;;;23.00;86.90;;;;;;4983561;28;20363;-59
2021/07/25 00:40:01;;;;;;;8.48;6.63;;;23.00;86.90;;;;;;4985399;28;20030;-59
2021/07/25 00:42:37;;;;;;;9.23;7.32;;;23.00;87.00;;;;;;4984147;28;20033;-58
2021/07/25 00:45:03;;;;;;;7.22;6.07;;;23.00;86.90;;;;;;4980715;28;20490;-59
2021/07/25 00:47:30;;;;;;;8.63;7.28;;;22.90;87.00;;;;;;4982616;28;20054;-59
2021/07/25 00:49:55;;;;;;;7.45;6.60;;;22.90;87.00;;;;;;4982871;28;20433;-59
2021/07/25 00:52:21;;;;;;;10.45;6.80;;;23.00;87.30;;;;;;4985531;28;20776;-59
2021/07/25 00:54:46;;;;;;;8.23;6.25;;;23.00;87.30;;;;;;4982986;28;20030;-59
2021/07/25 00:57:12;;;;;;;11.80;6.80;;;22.90;87.30;;;;;;4981288;28;20617;-59
2021/07/25 00:59:37;;;;;;;7.13;6.13;;;22.90;87.30;;;;;;4983188;28;20122;-59
2021/07/25 01:02:03;;;;;;;8.93;6.47;;;22.80;87.40;;;;;;4984964;28;20073;-58
2021/07/25 01:04:38;;;;;;;7.95;6.60;;;22.80;87.40;;;;;;4982664;28;20040;-58
2021/07/25 01:07:14;;;;;;;7.85;6.53;;;22.90;87.60;;;;;;4981140;28;20393;-58
2021/07/25 01:09:54;;;;;;;6.93;6.28;;;22.80;87.70;;;;;;4982541;28;20030;-59
2021/07/25 01:12:47;;;;;;;7.80;6.10;;;22.80;87.70;;;;;;4983521;28;20268;-59
2021/07/25 01:15:18;;;;;;;8.30;6.20;;;22.80;87.70;;;;;;4979870;28;20249;-59
2021/07/25 01:17:43;;;;;;;7.50;6.47;;;22.80;87.70;;;;;;4983144;28;20473;-59
2021/07/25 01:20:10;;;;;;;9.98;7.25;;;22.80;87.70;;;;;;4983967;28;20046;-59
2021/07/25 01:22:46;;;;;;;7.28;6.55;;;22.80;87.70;;;;;;4982611;28;20445;-59
2021/07/25 01:25:13;;;;;;;9.13;6.30;;;22.80;87.80;;;;;;4982432;28;20027;-59
2021/07/25 01:27:50;;;;;;;8.13;6.38;;;22.80;88.00;;;;;;4982904;28;20038;-59
2021/07/25 01:30:24;;;;;;;9.20;6.55;;;22.80;88.00;;;;;;4983176;28;20046;-59
2021/07/25 01:32:51;;;;;;;9.75;6.20;;;22.80;88.20;;;;;;4966877;28;20754;-59
2021/07/25 01:35:17;;;;;;;8.57;6.45;;;22.70;88.10;;;;;;4980045;28;20039;-59
2021/07/25 01:37:42;;;;;;;8.93;6.75;;;22.70;88.10;;;;;;4980367;28;20148;-59
2021/07/25 01:40:20;;;;;;;7.93;6.43;;;22.80;88.20;;;;;;4981853;28;20030;-59
2021/07/25 01:42:46;;;;;;;9.07;6.97;;;22.80;88.10;;;;;;4983013;28;20034;-58
2021/07/25 01:45:12;;;;;;;7.20;6.22;;;22.70;88.10;;;;;;4965984;28;20425;-58
2021/07/25 01:47:37;;;;;;;9.35;6.30;;;22.70;88.20;;;;;;4981559;28;20322;-59
2021/07/25 01:50:04;;;;;;;7.63;6.03;;;22.70;88.30;;;;;;4981762;28;20129;-59
2021/07/25 01:52:29;;;;;;;8.70;6.57;;;22.70;88.30;;;;;;4984627;28;20081;-59
2021/07/25 01:54:55;;;;;;;8.48;6.93;;;22.70;88.40;;;;;;4983517;28;20026;-59
2021/07/25 01:57:20;;;;;;;8.50;6.32;;;22.70;88.50;;;;;;4982591;28;20041;-59
2021/07/25 01:59:46;;;;;;;6.32;5.72;;;22.70;88.50;;;;;;4981634;28;20031;-59
2021/07/25 02:02:11;;;;;;;8.95;6.55;;;22.70;88.60;;;;;;4981162;28;20133;-58
2021/07/25 02:04:37;;;;;;;9.32;6.05;;;22.60;88.60;;;;;;4982884;28;20030;-59
2021/07/25 02:07:04;;;;;;;7.43;6.55;;;22.60;88.50;;;;;;4982330;28;20033;-59
2021/07/25 02:09:32;;;;;;;6.78;6.07;;;22.60;88.60;;;;;;4983224;28;20085;-59
2021/07/25 02:11:59;;;;;;;7.93;6.38;;;22.60;88.60;;;;;;4982173;28;20459;-59
2021/07/25 02:14:24;;;;;;;7.85;6.15;;;22.60;88.70;;;;;;4982930;28;20532;-59
2021/07/25 02:16:50;;;;;;;8.73;6.32;;;22.60;88.80;;;;;;4982994;28;20030;-59
2021/07/25 02:19:15;;;;;;;8.63;6.60;;;22.60;88.80;;;;;;4983124;28;20030;-59
2021/07/25 02:21:41;;;;;;;6.28;5.68;;;22.60;88.90;;;;;;4983915;28;20177;-59
2021/07/25 02:24:06;;;;;;;6.88;6.15;;;22.60;89.10;;;;;;4997532;28;20018;-59
2021/07/25 02:26:32;;;;;;;8.10;6.78;;;22.60;89.10;;;;;;4981074;28;20058;-60
2021/07/25 02:28:57;;;;;;;9.43;6.43;;;22.50;88.90;;;;;;4983809;28;20038;-59
2021/07/25 02:31:23;;;;;;;6.88;5.70;;;22.60;89.20;;;;;;4981219;28;20042;-59
2021/07/25 02:33:48;;;;;;;7.90;6.05;;;22.60;89.10;;;;;;4983303;28;20043;-60
2021/07/25 02:36:14;;;;;;;9.32;6.85;;;22.60;89.10;;;;;;4981662;28;20030;-59
2021/07/25 02:38:39;;;;;;;7.53;6.57;;;22.60;89.20;;;;;;4978803;28;20153;-59
2021/07/25 02:41:05;;;;;;;6.55;5.88;;;22.50;89.20;;;;;;4980117;28;20498;-59
2021/07/25 02:43:31;;;;;;;8.93;6.13;;;22.60;89.40;;;;;;4977703;28;20030;-58
2021/07/25 02:45:57;;;;;;;6.55;5.95;;;22.50;89.30;;;;;;4984238;28;20461;-59
2021/07/25 02:48:23;;;;;;;8.43;5.90;;;22.50;89.40;;;;;;4986870;28;20490;-59
2021/07/25 02:50:48;;;;;;;8.65;6.63;;;22.50;89.50;;;;;;4987198;28;20038;-58
2021/07/25 02:53:14;;;;;;;8.30;6.47;;;22.50;89.50;;;;;;4986196;28;20118;-59
2021/07/25 02:55:39;;;;;;;6.80;6.10;;;22.50;89.60;;;;;;4986402;28;20053;-59
2021/07/25 02:58:05;;;;;;;7.28;6.05;;;22.50;89.60;;;;;;4987300;28;20490;-59
2021/07/25 03:00:30;;;;;;;7.32;6.20;;;22.40;89.70;;;;;;4970067;28;20038;-59
2021/07/25 03:02:56;;;;;;;8.50;6.13;;;22.50;89.80;;;;;;4986767;28;20038;-59
2021/07/25 03:05:22;;;;;;;9.20;5.75;;;22.40;89.80;;;;;;4986283;28;20034;-59
2021/07/25 03:07:48;;;;;;;7.88;6.28;;;22.40;89.80;;;;;;4984065;28;20026;-59
2021/07/25 03:10:14;;;;;;;6.80;6.10;;;22.40;89.80;;;;;;4986999;28;20030;-59
2021/07/25 03:12:39;;;;;;;6.50;5.75;;;22.40;89.90;;;;;;4988911;28;20041;-59
2021/07/25 03:15:05;;;;;;;6.97;6.00;;;22.40;90.00;;;;;;4986336;28;20442;-58
2021/07/25 03:17:31;;;;;;;8.13;5.72;;;22.40;90.00;;;;;;4986486;28;20129;-59
2021/07/25 03:19:56;;;;;;;8.35;5.93;;;22.50;90.10;;;;;;4988700;28;20110;-59
2021/07/25 03:22:22;;;;;;;7.32;6.47;;;22.40;90.00;;;;;;4989121;28;20030;-59
2021/07/25 03:24:48;;;;;;;8.75;6.18;;;22.40;90.00;;;;;;4989554;28;20030;-58
2021/07/25 03:27:13;;;;;;;8.77;5.43;;;22.30;90.30;;;;;;4987560;28;20046;-58
2021/07/25 03:29:39;;;;;;;8.13;5.90;;;22.40;90.10;;;;;;4987101;28;20435;-59
2021/07/25 03:32:05;;;;;;;8.30;5.88;;;22.40;90.00;;;;;;5003431;28;20092;-59
2021/07/25 03:34:33;;;;;;;7.60;6.07;;;22.40;90.00;;;;;;4989603;28;20506;-59
2021/07/25 03:36:59;;;;;;;8.77;5.93;;;22.30;90.00;;;;;;4985886;28;20122;-59
2021/07/25 03:39:25;;;;;;;7.32;6.30;;;22.30;90.10;;;;;;4988874;28;20526;-59
2021/07/25 03:41:50;;;;;;;8.07;6.30;;;22.40;90.10;;;;;;4988369;28;20166;-58
2021/07/25 03:44:16;;;;;;;8.27;6.03;;;22.30;90.10;;;;;;4988229;28;20069;-59
2021/07/25 03:46:42;;;;;;;8.43;6.18;;;22.30;90.10;;;;;;4986766;28;20038;-59
2021/07/25 03:49:08;;;;;;;9.70;6.90;;;22.30;90.40;;;;;;4989398;28;20034;-59
2021/07/25 03:51:33;;;;;;;6.63;5.93;;;22.30;90.20;;;;;;4988195;28;20070;-59
2021/07/25 03:53:59;;;;;;;8.02;5.75;;;22.30;90.20;;;;;;4988853;28;20092;-59
2021/07/25 03:56:24;;;;;;;6.50;5.35;;;22.40;90.30;;;;;;4983778;28;20136;-59
2021/07/25 03:58:50;;;;;;;8.18;6.30;;;22.20;90.30;;;;;;4984135;28;20038;-59
2021/07/25 04:01:16;;;;;;;8.40;5.70;;;22.20;90.30;;;;;;4984054;28;20100;-59
2021/07/25 04:03:41;;;;;;;7.75;6.07;;;22.20;90.40;;;;;;4984626;28;20334;-59
2021/07/25 04:06:07;;;;;;;7.03;6.00;;;22.20;90.40;;;;;;4983019;28;20053;-59
2021/07/25 04:08:32;;;;;;;6.72;5.95;;;22.20;90.40;;;;;;4982354;28;20097;-59
2021/07/25 04:10:58;;;;;;;8.45;6.05;;;22.30;90.40;;;;;;4984782;28;20501;-60
2021/07/25 04:13:23;;;;;;;7.43;6.30;;;22.20;90.30;;;;;;4984658;28;20370;-59
2021/07/25 04:15:49;;;;;;;6.38;5.78;;;22.20;90.30;;;;;;4980530;28;20382;-59
2021/07/25 04:18:14;;;;;;;7.45;6.15;;;22.20;90.20;;;;;;4983627;28;20459;-59
2021/07/25 04:20:40;;;;;;;6.95;6.10;;;22.20;90.20;;;;;;4982223;28;20110;-59
2021/07/25 04:23:05;;;;;;;5.90;5.22;;;22.20;90.30;;;;;;4982482;28;20442;-59
2021/07/25 04:25:31;;;;;;;7.38;6.65;;;22.20;90.30;;;;;;4981396;28;20058;-59
2021/07/25 04:27:57;;;;;;;7.20;6.38;;;22.10;90.30;;;;;;4982702;28;20032;-59
2021/07/25 04:30:24;;;;;;;7.50;5.95;;;22.10;90.30;;;;;;4984947;28;20258;-59
2021/07/25 04:32:50;;;;;;;8.18;6.00;;;22.10;90.30;;;;;;4984940;28;20084;-59
2021/07/25 04:35:17;;;;;;;6.53;5.80;;;22.10;90.30;;;;;;4981493;28;20053;-59
2021/07/25 04:37:48;;;;;;;7.40;5.60;;;22.10;90.30;;;;;;4984270;28;20085;-59
2021/07/25 04:40:15;;;;;;;6.70;5.90;;;22.10;90.30;;;;;;4984286;28;20046;-58
2021/07/25 04:42:41;;;;;;;9.57;6.43;;;22.10;90.30;;;;;;4983977;28;20034;-58
2021/07/25 04:45:07;;;;;;;12.88;6.53;;;22.10;90.30;;;;;;4982234;28;20105;-59
2021/07/25 04:47:36;;;;;;;13.30;6.93;;;22.10;90.30;;;;;;4981569;28;20113;-59
2021/07/25 04:50:05;;;;;;;9.90;6.05;;;22.10;90.30;;;;;;4982561;28;20030;-59
2021/07/25 04:52:36;;;;;;;7.40;5.38;;;22.10;90.40;;;;;;4983683;28;20105;-59
2021/07/25 04:55:01;;;;;;;10.07;6.28;;;22.10;90.30;;;;;;4981556;28;20074;-58
2021/07/25 04:57:27;;;;;;;12.93;6.40;;;22.10;90.70;;;;;;4982406;28;20030;-59
2021/07/25 04:59:54;;;;;;;11.95;5.93;;;22.10;90.40;;;;;;4982511;28;20044;-59
2021/07/25 05:02:23;;;;;;;9.45;6.05;;;22.10;90.50;;;;;;4967034;28;20537;-59
2021/07/25 05:04:49;;;;;;;11.18;5.95;;;22.10;90.40;;;;;;4982223;28;20064;-59
2021/07/25 05:07:15;;;;;;;9.07;6.05;;;22.10;90.50;;;;;;4983286;28;20065;-59
2021/07/25 05:09:41;;;;;;;12.55;6.80;;;22.10;90.50;;;;;;4981811;28;20113;-59
2021/07/25 05:12:10;;;;;;;9.27;5.75;;;22.10;90.50;;;;;;4981107;28;20117;-58
2021/07/25 05:14:36;;;;;;;10.75;6.22;;;22.10;90.40;;;;;;4985017;28;20029;-59
2021/07/25 05:17:05;;;;;;;7.68;5.72;;;22.10;90.40;;;;;;4984415;28;20030;-59
2021/07/25 05:19:51;;;;;;;12.68;6.70;;;22.10;90.40;;;;;;4981242;28;20049;-58
2021/07/25 05:22:29;;;;;;;14.68;6.20;;;22.10;90.40;;;;;;4982392;28;20025;-59
2021/07/25 05:24:55;;;;;;;9.00;6.18;;;22.10;90.40;;;;;;4983532;28;20130;-58
2021/07/25 05:27:23;;;;;;;9.55;6.30;;;22.10;90.40;;;;;;4983155;28;20101;-59
2021/07/25 05:29:50;;;;;;;15.48;6.68;;;22.10;90.40;;;;;;4982856;28;20049;-59
2021/07/25 05:32:15;;;;;;;11.23;6.35;;;22.10;90.40;;;;;;4984029;28;20026;-59
2021/07/25 05:34:41;;;;;;;9.80;5.93;;;22.10;90.40;;;;;;4983165;28;20033;-58
2021/07/25 05:37:06;;;;;;;9.05;6.60;;;22.20;90.40;;;;;;4982696;28;20363;-59
2021/07/25 05:39:32;;;;;;;9.95;6.35;;;22.20;90.40;;;;;;4982265;28;20054;-59
2021/07/25 05:41:57;;;;;;;19.65;6.70;;;22.20;90.40;;;;;;4983917;28;20042;-59
2021/07/25 05:44:23;;;;;;;12.65;6.63;;;22.20;90.50;;;;;;4983881;28;20121;-59
2021/07/25 05:46:49;;;;;;;11.20;5.90;;;22.20;90.50;;;;;;4984174;28;20022;-59
2021/07/25 05:49:14;;;;;;;13.85;6.60;;;22.20;90.50;;;;;;4980767;28;20550;-59
2021/07/25 05:51:40;;;;;;;15.15;6.00;;;22.20;90.50;;;;;;4981419;28;20054;-59
2021/07/25 05:54:05;;;;;;;9.68;6.10;;;22.20;90.40;;;;;;4981031;28;20038;-59
2021/07/25 05:56:31;;;;;;;9.32;6.18;;;22.20;90.50;;;;;;4982752;28;20034;-59
2021/07/25 05:58:56;;;;;;;11.85;5.63;;;22.20;90.50;;;;;;4983631;28;20077;-59
2021/07/25 06:01:22;;;;;;;9.02;6.30;;;22.20;90.50;;;;;;4982704;28;20022;-59
2021/07/25 06:03:47;;;;;;;13.90;6.50;;;22.20;90.60;;;;;;4980526;28;20237;-59
2021/07/25 06:06:13;;;;;;;9.18;6.18;;;22.20;90.70;;;;;;4983679;28;20030;-59
2021/07/25 06:08:38;;;;;;;10.55;6.20;;;22.20;90.70;;;;;;4981894;28;20031;-59
2021/07/25 06:11:04;;;;;;;10.23;6.22;;;22.20;90.70;;;;;;4981782;28;20049;-59
2021/07/25 06:13:29;;;;;;;8.07;6.38;;;22.20;90.90;;;;;;4983591;28;20034;-59
2021/07/25 06:15:55;;;;;;;9.30;6.60;;;22.20;90.90;;;;;;4978705;28;20361;-59
2021/07/25 06:18:20;;;;;;;12.10;7.07;;;22.30;91.00;;;;;;4983143;28;20434;-59
2021/07/25 06:20:46;;;;;;;12.30;6.72;;;22.30;90.90;;;;;;4980798;28;20480;-59
2021/07/25 06:23:14;;;;;;;13.70;7.10;;;22.30;90.90;;;;;;4983463;28;20030;-59
2021/07/25 06:25:40;;;;;;;13.15;6.95;;;22.30;91.00;;;;;;4982826;28;20215;-59
2021/07/25 06:28:05;;;;;;;14.43;6.93;;;22.30;91.00;;;;;;4982466;28;20077;-59
2021/07/25 06:30:31;;;;;;;12.07;6.90;;;22.30;91.10;;;;;;4981393;28;20042;-59
2021/07/25 06:33:09;;;;;;;10.27;7.25;;;22.40;91.00;;;;;;4981206;28;20034;-59
2021/07/25 06:35:39;;;;;;;15.90;6.43;;;22.40;90.90;;;;;;4982181;28;20042;-59
2021/07/25 06:38:15;;;;;;;9.30;7.28;;;22.40;90.70;;;;;;4980682;28;20065;-60
2021/07/25 06:40:42;;;;;;;9.57;6.53;;;22.40;90.80;;;;;;4979418;28;20038;-59
2021/07/25 06:43:08;;;;;;;7.05;5.72;;;22.50;90.80;;;;;;4981083;28;20038;-59
2021/07/25 06:45:34;;;;;;;7.57;5.70;;;22.50;90.60;;;;;;4981598;28;20375;-59
2021/07/25 06:47:59;;;;;;;13.38;6.43;;;22.50;90.50;;;;;;4979190;28;20081;-59
2021/07/25 06:50:26;;;;;;;12.13;6.75;;;22.50;90.30;;;;;;4978855;28;20486;-60
2021/07/25 06:52:52;;;;;;;9.65;6.47;;;22.60;90.30;;;;;;4965415;28;20156;-59
2021/07/25 06:55:18;;;;;;;8.63;6.20;;;22.60;90.10;;;;;;4979463;28;20069;-59
2021/07/25 06:57:44;;;;;;;7.32;5.88;;;22.60;90.10;;;;;;4979523;28;20061;-59
2021/07/25 07:00:10;;;;;;;8.27;5.63;;;22.60;90.00;;;;;;4980404;28;20514;-59
2021/07/25 07:02:48;;;;;;;8.45;6.68;;;22.60;90.20;;;;;;4982192;28;20026;-60
2021/07/25 07:05:15;;;;;;;7.72;6.05;;;22.60;90.30;;;;;;4981922;28;20305;-59
2021/07/25 07:07:41;;;;;;;7.88;6.97;;;22.60;90.10;;;;;;4982282;28;20367;-59
2021/07/25 07:10:07;;;;;;;7.68;6.40;;;22.60;90.10;;;;;;4976761;28;20042;-60
2021/07/25 07:12:34;;;;;;;8.25;6.50;;;22.60;90.20;;;;;;4980897;28;20072;-60
2021/07/25 07:15:00;;;;;;;12.35;7.13;;;22.60;90.20;;;;;;4978903;28;20026;-60
2021/07/25 07:17:25;;;;;;;12.00;7.05;;;22.70;90.20;;;;;;4979915;28;20031;-59
2021/07/25 07:19:51;;;;;;;8.60;7.20;;;22.70;90.30;;;;;;4980309;28;20039;-59
2021/07/25 07:22:29;;;;;;;8.43;6.78;;;22.60;90.20;;;;;;4980686;28;20058;-59
2021/07/25 07:24:54;;;;;;;8.13;6.93;;;22.60;90.10;;;;;;4979891;28;20022;-59
2021/07/25 07:27:21;;;;;;;9.90;7.13;;;22.60;90.10;;;;;;4982622;28;20088;-59
2021/07/25 07:29:46;;;;;;;9.65;7.13;;;22.60;89.90;;;;;;4981221;28;20042;-59
2021/07/25 07:32:12;;;;;;;15.63;7.47;;;22.60;90.00;;;;;;4982558;28;20034;-59
2021/07/25 07:34:37;;;;;;;21.42;7.75;;;22.60;90.00;;;;;;4983639;28;20050;-60
2021/07/25 07:37:04;;;;;;;42.97;10.00;;;22.60;90.20;;;;;;4983211;28;20495;-60
2021/07/25 07:39:29;;;;;;;18.50;8.15;;;22.50;90.00;;;;;;4982842;28;20080;-59
2021/07/25 07:41:55;;;;;;;10.07;7.30;;;22.50;90.10;;;;;;4984880;28;20069;-60
2021/07/25 07:44:20;;;;;;;8.52;6.70;;;22.50;90.10;;;;;;4986070;28;20031;-59
2021/07/25 07:46:46;;;;;;;10.98;7.05;;;22.50;90.00;;;;;;4983226;28;20344;-60
2021/07/25 07:49:11;;;;;;;16.35;7.22;;;22.50;90.00;;;;;;4984645;28;20022;-59
2021/07/25 07:51:37;;;;;;;9.25;6.75;;;22.50;89.80;;;;;;4983822;28;20042;-60
2021/07/25 07:54:02;;;;;;;14.38;6.85;;;22.50;89.70;;;;;;5000531;28;20026;-60
2021/07/25 07:56:30;;;;;;;9.82;7.00;;;22.50;89.80;;;;;;4984082;28;20034;-59
2021/07/25 07:58:56;;;;;;;8.45;6.32;;;22.50;90.00;;;;;;4982329;28;20493;-62
2021/07/25 08:01:22;;;;;;;10.15;7.05;;;22.50;89.90;;;;;;4982450;28;20050;-60
2021/07/25 08:03:47;;;;;;;17.73;6.75;;;22.50;90.00;;;;;;4982694;28;20261;-59
2021/07/25 08:06:13;;;;;;;23.85;7.90;;;22.50;90.30;;;;;;4984736;28;20081;-59
2021/07/25 08:08:38;;;;;;;19.63;7.38;;;22.50;90.50;;;;;;4981453;28;20132;-59
2021/07/25 08:11:04;;;;;;;43.58;8.77;;;22.50;90.80;;;;;;4983061;28;20058;-60
2021/07/25 08:13:29;;;;;;;13.80;7.80;;;22.40;90.80;;;;;;4979663;28;20061;-59
2021/07/25 08:15:55;;;;;;;21.83;6.82;;;22.40;90.80;;;;;;4982336;28;20183;-59
2021/07/25 08:18:20;;;;;;;12.18;6.40;;;22.40;90.90;;;;;;4982346;28;21216;-60
2021/07/25 08:20:46;;;;;;;10.02;6.40;;;22.40;90.90;;;;;;4983640;28;20030;-60
2021/07/25 08:23:11;;;;;;;10.82;6.68;;;22.40;91.00;;;;;;4984444;28;20659;-59
2021/07/25 08:25:37;;;;;;;11.32;6.15;;;22.40;91.20;;;;;;4980865;28;20529;-58
2021/07/25 08:28:02;;;;;;;19.88;6.85;;;22.40;91.20;;;;;;4981730;28;20537;-59
2021/07/25 08:30:30;;;;;;;10.43;6.70;;;22.40;91.30;;;;;;4982098;28;20027;-59
2021/07/25 08:32:55;;;;;;;16.95;7.57;;;22.30;91.50;;;;;;4983987;28;20157;-59
2021/07/25 08:35:21;;;;;;;28.02;7.85;;;22.30;91.50;;;;;;4982411;28;20125;-59
2021/07/25 08:37:46;;;;;;;40.15;7.97;;;22.30;91.60;;;;;;4982513;28;20486;-59
2021/07/25 08:40:15;;;;;;;64.35;9.35;;;22.30;91.50;;;;;;4980173;28;20605;-59
2021/07/25 08:42:49;;;;;;;16.92;6.93;;;22.30;91.60;;;;;;4979939;28;20102;-59
2021/07/25 08:45:15;;;;;;;17.20;6.95;;;22.30;91.70;;;;;;4981688;28;20112;-60
2021/07/25 08:47:41;;;;;;;19.15;6.75;;;22.30;91.70;;;;;;4981633;28;20026;-59
2021/07/25 08:50:09;;;;;;;13.73;7.00;;;22.30;91.70;;;;;;4982203;28;20110;-60
2021/07/25 08:52:36;;;;;;;16.30;6.97;;;22.40;91.80;;;;;;4982195;28;20141;-60
2021/07/25 08:55:04;;;;;;;51.65;9.60;;;22.30;91.70;;;;;;4979608;28;20409;-59
2021/07/25 08:57:31;;;;;;;21.05;8.25;;;22.40;91.80;;;;;;4980094;28;20058;-59
2021/07/25 08:59:57;;;;;;;29.80;7.65;;;22.40;91.90;;;;;;4982738;28;20071;-59
2021/07/25 09:02:24;;;;;;;27.75;7.72;;;22.40;92.10;;;;;;4981168;28;20102;-60
2021/07/25 09:04:50;;;;;;;20.73;6.70;;;22.40;92.00;;;;;;4979670;28;20462;-59
2021/07/25 09:07:19;;;;;;;32.88;8.35;;;22.40;91.80;;;;;;4979321;28;20120;-59
2021/07/25 09:09:46;;;;;;;53.40;11.38;;;22.40;92.40;;;;;;4980704;28;20022;-59
2021/07/25 09:12:13;;;;;;;55.22;9.65;;;22.40;92.20;;;;;;4963677;28;20407;-60
2021/07/25 09:14:43;;;;;;;25.02;8.80;;;22.50;92.10;;;;;;4977842;28;20034;-59
2021/07/25 09:17:10;;;;;;;40.08;9.88;;;22.50;92.00;;;;;;4980049;28;20339;-59
2021/07/25 09:19:35;;;;;;;49.05;9.57;;;22.50;92.10;;;;;;4977704;28;20035;-59
2021/07/25 09:22:02;;;;;;;63.05;9.77;;;22.50;92.10;;;;;;4979199;28;20076;-59
2021/07/25 09:24:34;;;;;;;54.40;9.70;;;22.60;92.30;;;;;;4979520;28;20037;-60
2021/07/25 09:27:06;;;;;;;43.05;9.52;;;22.50;92.10;;;;;;4980903;28;20168;-59
2021/07/25 09:29:36;;;;;;;50.60;10.07;;;22.60;92.10;;;;;;4980850;28;20035;-61
2021/07/25 09:32:18;;;;;;;56.90;10.52;;;22.60;92.00;;;;;;4962719;28;20075;-60
2021/07/25 09:34:48;;;;;;;58.03;10.50;;;22.60;92.10;;;;;;4978754;28;20105;-59
2021/07/25 09:37:16;;;;;;;39.58;9.27;;;22.60;92.10;;;;;;4981982;28;20026;-59
2021/07/25 09:39:45;;;;;;;42.13;10.23;;;22.60;92.20;;;;;;4979983;28;20325;-59
2021/07/25 09:42:11;;;;;;;58.30;10.10;;;22.60;92.50;;;;;;4980348;28;20395;-60
2021/07/25 09:44:44;;;;;;;55.85;9.90;;;22.60;92.40;;;;;;4980378;28;20145;-59
2021/07/25 09:47:11;;;;;;;57.67;11.13;;;22.60;92.20;;;;;;4980269;28;20030;-59
2021/07/25 09:49:41;;;;;;;60.80;9.80;;;22.60;92.00;;;;;;4976745;28;20161;-59
2021/07/25 09:52:07;;;;;;;75.03;10.80;;;22.60;91.90;;;;;;4977962;28;20030;-59
2021/07/25 09:54:32;;;;;;;122.78;16.88;;;22.60;92.20;;;;;;4977606;28;20049;-59
2021/07/25 09:57:09;;;;;;;122.78;16.02;;;22.60;92.10;;;;;;4978434;28;20102;-60
2021/07/25 09:59:34;;;;;;;112.07;15.02;;;22.60;92.20;;;;;;4980204;28;20500;-59
2021/07/25 10:02:00;;;;;;;103.50;14.15;;;22.60;92.30;;;;;;4978904;28;20137;-60
2021/07/25 10:04:26;;;;;;;123.07;15.65;;;22.60;92.40;;;;;;4979520;28;20121;-59
2021/07/25 10:06:54;;;;;;;66.05;11.68;;;22.60;92.50;;;;;;4982396;28;20023;-59
2021/07/25 10:09:21;;;;;;;113.55;15.85;;;22.60;92.30;;;;;;4979142;28;20029;-59
2021/07/25 10:11:58;;;;;;;95.75;13.93;;;22.60;92.40;;;;;;4980621;28;20046;-59
2021/07/25 10:14:24;;;;;;;72.90;11.50;;;22.60;92.30;;;;;;4978879;28;20118;-59
2021/07/25 10:16:53;;;;;;;72.82;12.00;;;22.60;92.50;;;;;;4980509;28;20149;-59
2021/07/25 10:19:28;;;;;;;49.38;9.85;;;22.60;92.40;;;;;;4979520;28;20030;-59
2021/07/25 10:21:57;;;;;;;70.15;12.98;;;22.60;92.20;;;;;;4980525;28;20719;-59
2021/07/25 10:24:24;;;;;;;109.82;15.32;;;22.60;92.60;;;;;;4977205;28;20120;-59
2021/07/25 10:26:54;;;;;;;85.75;13.70;;;22.60;92.90;;;;;;4994211;28;20228;-59
2021/07/25 10:29:23;;;;;;;110.32;14.15;;;22.70;92.80;;;;;;4978026;28;20026;-58
2021/07/25 10:31:49;;;;;;;104.88;13.18;;;22.70;92.80;;;;;;4981668;28;20121;-59
2021/07/25 10:34:15;;;;;;;67.80;12.10;;;22.70;92.60;;;;;;4979433;28;20030;-59
2021/07/25 10:36:40;;;;;;;81.68;12.77;;;22.70;92.10;;;;;;4979307;28;20089;-58
2021/07/25 10:39:06;;;;;;;108.68;13.77;;;22.70;92.00;;;;;;4978017;28;20101;-58
2021/07/25 10:41:31;;;;;;;147.27;16.83;;;22.70;92.30;;;;;;4958277;28;20033;-58
2021/07/25 10:44:00;;;;;;;120.22;14.93;;;22.70;92.60;;;;;;4979460;28;20034;-59
2021/07/25 10:46:25;;;;;;;96.10;14.25;;;22.70;92.70;;;;;;4962631;28;20643;-58
2021/07/25 10:49:00;;;;;;;108.07;13.98;;;22.70;92.70;;;;;;4979414;28;20038;-59
2021/07/25 10:51:29;;;;;;;171.50;16.50;;;22.70;92.40;;;;;;4979263;28;20053;-59
2021/07/25 10:54:24;;;;;;;134.38;16.60;;;22.80;92.60;;;;;;4977974;28;20030;-58
2021/07/25 10:57:00;;;;;;;119.72;17.08;;;22.80;92.50;;;;;;4979409;28;20051;-58
2021/07/25 10:59:58;;;;;;;110.20;15.18;;;22.70;92.60;;;;;;4977998;28;20086;-58
2021/07/25 11:02:29;;;;;;;130.63;17.20;;;22.70;92.50;;;;;;4944139;28;20050;-58
2021/07/25 11:04:54;;;;;;;204.32;20.55;;;22.80;92.60;;;;;;4994117;28;20026;-58
2021/07/25 11:07:23;;;;;;;120.60;15.13;;;22.80;92.60;;;;;;4982570;28;20038;-59
2021/07/25 11:10:02;;;;;;;147.43;16.50;;;22.80;92.40;;;;;;4985174;28;20050;-63
2021/07/25 11:12:56;;;;;;;162.57;16.48;;;22.60;92.10;;;;;;4984280;28;20030;-59
2021/07/25 11:15:34;;;;;;;185.95;21.73;;;22.70;92.10;;;;;;4984445;28;20064;-58
2021/07/25 11:18:08;;;;;;;154.27;18.08;;;22.70;92.20;;;;;;4981093;28;20015;-59
2021/07/25 11:20:38;;;;;;;175.70;20.50;;;22.70;92.20;;;;;;4966369;28;20129;-58
2021/07/25 11:23:05;;;;;;;182.40;20.10;;;22.70;92.20;;;;;;4982854;28;20195;-63
2021/07/25 11:25:34;;;;;;;136.27;18.77;;;22.70;92.30;;;;;;4980553;28;20125;-58
2021/07/25 11:28:03;;;;;;;199.75;20.98;;;22.70;92.40;;;;;;4983325;28;20030;-59
2021/07/25 11:30:51;;;;;;;169.18;19.60;;;22.80;92.50;;;;;;4980670;28;20070;-62
2021/07/25 11:33:45;;;;;;;204.05;21.85;;;22.80;92.40;;;;;;4982671;28;20029;-58
2021/07/25 11:36:15;;;;;;;157.90;19.00;;;22.80;92.80;;;;;;4997216;28;20120;-58
2021/07/25 11:38:41;;;;;;;183.40;18.65;;;22.80;92.30;;;;;;4980664;28;20065;-59
2021/07/25 11:41:08;;;;;;;133.18;16.75;;;22.90;92.30;;;;;;4982689;28;20038;-58
2021/07/25 11:43:51;;;;;;;160.27;18.13;;;22.90;92.10;;;;;;4980920;28;20042;-58
2021/07/25 11:46:31;;;;;;;168.05;19.40;;;23.00;92.10;;;;;;4983642;28;20038;-59
2021/07/25 11:49:17;;;;;;;167.57;20.20;;;23.10;92.30;;;;;;4982259;28;20066;-58
2021/07/25 11:51:51;;;;;;;139.63;17.73;;;23.20;92.30;;;;;;4985230;28;20105;-58
2021/07/25 11:54:30;;;;;;;141.80;17.25;;;23.30;92.10;;;;;;4981315;28;20031;-58
2021/07/25 11:56:59;;;;;;;152.98;17.98;;;23.30;92.00;;;;;;4979918;28;20093;-58
2021/07/25 11:59:25;;;;;;;159.95;18.30;;;23.40;92.00;;;;;;4983748;28;20077;-58
2021/07/25 12:01:51;;;;;;;150.73;18.05;;;23.50;91.80;;;;;;4985022;28;20085;-58
2021/07/25 12:04:27;;;;;;;162.55;18.70;;;23.60;91.70;;;;;;4982889;28;20026;-58
2021/07/25 12:07:00;;;;;;;139.48;17.33;;;23.70;91.50;;;;;;4982771;28;20474;-58
2021/07/25 12:09:25;;;;;;;152.02;18.33;;;23.70;91.10;;;;;;4982117;28;20034;-58
2021/07/25 12:11:59;;;;;;;174.52;19.80;;;23.90;91.40;;;;;;4980886;28;20038;-58
2021/07/25 12:14:28;;;;;;;146.02;16.77;;;23.90;91.00;;;;;;4975782;28;20076;-58
2021/07/25 12:16:55;;;;;;;136.80;17.38;;;24.00;90.80;;;;;;4982472;28;20194;-59
2021/07/25 12:19:21;;;;;;;150.60;18.77;;;24.00;90.60;;;;;;4995905;28;20030;-58
2021/07/25 12:21:47;;;;;;;187.93;22.00;;;24.10;90.40;;;;;;4979329;28;21307;-58
2021/07/25 12:24:32;;;;;;;195.43;22.20;;;24.20;90.20;;;;;;4981915;28;20085;-58
2021/07/25 12:26:58;;;;;;;177.13;20.55;;;24.30;90.30;;;;;;4981500;28;20022;-58
2021/07/25 12:30:05;;;;;;;190.70;20.13;;;24.30;90.30;;;;;;4981457;28;20500;-58
2021/07/25 12:32:31;;;;;;;254.50;25.48;;;24.40;90.20;;;;;;4977193;28;20041;-61
2021/07/25 12:35:09;;;;;;;171.52;20.95;;;24.40;90.20;;;;;;4979059;28;20108;-58
2021/07/25 12:37:44;;;;;;;189.32;21.90;;;24.40;90.20;;;;;;4982009;28;20532;-58
2021/07/25 12:40:15;;;;;;;207.07;23.33;;;24.50;90.30;;;;;;4980658;28;20133;-58
2021/07/25 12:42:45;;;;;;;170.38;21.02;;;24.60;90.20;;;;;;4997435;28;20671;-58